Time;durP1;ratioP1;P1;durP2;ratioP2;P2;SDS_P1;SDS_P2;PMS_P1;PMS_P2;Temp;Humidity;BMP_temperature;BMP_pressure;BME280_temperature;BME280_humidity;BME280_pressure;Samples;Min_cycle;Max_cycle;Signal;HPM_P1;HPM_P2
2022/08/18 00:00:21;;;;;;;32.08;23.15;;;;;;;16.87;100.00;95588.00;1026033;28;20078;-70
2022/08/18 00:00:52;;;;;;;32.38;23.75;;;;;;;16.80;100.00;95579.69;1020582;28;20023;-71
2022/08/18 00:01:22;;;;;;;32.30;23.75;;;;;;;16.87;100.00;95593.31;1025404;28;20034;-71
2022/08/18 00:02:17;;;;;;;36.25;25.25;;;;;;;16.88;100.00;95589.56;1030091;28;20055;-71
2022/08/18 00:02:47;;;;;;;27.48;21.35;;;;;;;16.87;100.00;95594.09;1023286;28;20089;-71
2022/08/18 00:03:19;;;;;;;29.42;22.23;;;;;;;16.88;100.00;95592.22;1024881;28;20025;-71
2022/08/18 00:03:49;;;;;;;42.63;26.27;;;;;;;16.87;100.00;95590.66;1017581;28;20024;-71
2022/08/18 00:04:20;;;;;;;35.45;25.08;;;;;;;16.87;100.00;95590.66;1021175;29;20031;-71
2022/08/18 00:04:51;;;;;;;29.80;21.85;;;;;;;16.89;100.00;95599.06;1026040;28;20023;-70
2022/08/18 00:05:21;;;;;;;28.60;22.17;;;;;;;16.89;100.00;95596.41;1026309;28;20791;-70
2022/08/18 00:05:52;;;;;;;34.35;25.10;;;;;;;16.87;100.00;95588.00;1026799;28;20097;-71
2022/08/18 00:06:22;;;;;;;35.15;24.55;;;;;;;16.89;100.00;95585.81;1026058;28;20144;-71
2022/08/18 00:06:53;;;;;;;35.08;23.58;;;;;;;16.88;100.00;95590.34;1034059;28;20022;-71
2022/08/18 00:07:25;;;;;;;48.78;29.70;;;;;;;16.86;100.00;95586.41;1033089;28;20120;-71
2022/08/18 00:07:56;;;;;;;37.05;26.05;;;;;;;16.93;100.00;95592.06;1030139;28;20030;-71
2022/08/18 00:08:28;;;;;;;44.17;27.70;;;;;;;16.90;100.00;95587.38;1026390;28;20157;-71
2022/08/18 00:08:59;;;;;;;35.63;24.75;;;;;;;16.85;100.00;95579.56;1025141;28;20034;-71
2022/08/18 00:09:29;;;;;;;31.00;23.73;;;;;;;16.88;100.00;95582.38;1022078;29;20514;-71
2022/08/18 00:10:00;;;;;;;25.42;21.48;;;;;;;16.88;100.00;95582.38;1018183;29;20020;-70
2022/08/18 00:10:31;;;;;;;25.00;20.75;;;;;;;16.90;100.00;95579.41;1018129;29;20528;-70
2022/08/18 00:11:01;;;;;;;28.77;21.13;;;;;;;16.88;100.00;95576.31;1021591;29;20057;-71
2022/08/18 00:11:33;;;;;;;23.55;19.88;;;;;;;16.80;100.00;95572.53;1021468;28;20811;-71
2022/08/18 00:12:11;;;;;;;24.52;21.35;;;;;;;16.86;100.00;95581.13;1025987;28;20053;-70
2022/08/18 00:12:42;;;;;;;28.48;20.92;;;;;;;16.85;100.00;95579.56;1015294;29;20020;-70
2022/08/18 00:13:12;;;;;;;25.83;19.40;;;;;;;16.86;100.00;95581.13;1022070;29;20481;-70
2022/08/18 00:13:43;;;;;;;26.45;20.73;;;;;;;16.85;100.00;95575.03;1018769;29;20489;-71
2022/08/18 00:14:17;;;;;;;25.05;20.17;;;;;;;16.80;100.00;95564.59;1018510;28;20020;-70
2022/08/18 00:14:48;;;;;;;21.27;18.85;;;;;;;16.84;100.00;95588.63;1023797;28;20513;-70
2022/08/18 00:15:19;;;;;;;22.13;18.90;;;;;;;16.79;100.00;95578.91;1026495;28;20057;-70
2022/08/18 00:15:49;;;;;;;25.63;19.92;;;;;;;16.84;100.00;95583.31;1020774;29;20091;-70
2022/08/18 00:16:20;;;;;;;27.38;20.65;;;;;;;16.84;100.00;95591.25;1018885;28;20024;-71
2022/08/18 00:16:51;;;;;;;27.85;21.55;;;;;;;16.80;100.00;95587.63;1026157;28;20026;-71
2022/08/18 00:17:22;;;;;;;24.05;19.75;;;;;;;16.80;100.00;95590.28;1026341;28;20584;-72
2022/08/18 00:17:52;;;;;;;25.63;20.58;;;;;;;16.84;100.00;95591.25;1026151;28;20023;-70
2022/08/18 00:18:23;;;;;;;27.33;21.60;;;;;;;16.83;100.00;95589.69;1029999;28;20156;-70
2022/08/18 00:18:53;;;;;;;24.98;18.55;;;;;;;16.81;100.00;95589.22;1030392;28;20503;-70
2022/08/18 00:19:24;;;;;;;26.30;19.52;;;;;;;16.77;100.00;95581.09;1031970;28;20034;-71
2022/08/18 00:19:55;;;;;;;27.60;21.65;;;;;;;16.76;100.00;95581.38;1030163;28;20468;-70
2022/08/18 00:20:25;;;;;;;26.55;20.90;;;;;;;16.81;100.00;95590.00;1025962;28;20553;-69
2022/08/18 00:20:56;;;;;;;21.60;18.92;;;;;;;16.82;100.00;95580.19;1020727;28;20017;-70
2022/08/18 00:21:26;;;;;;;26.05;20.33;;;;;;;16.75;100.00;95575.31;1024924;28;20615;-71
2022/08/18 00:21:57;;;;;;;25.67;20.33;;;;;;;16.79;100.00;95575.47;1022286;28;20039;-71
2022/08/18 00:22:27;;;;;;;23.98;17.88;;;;;;;16.78;100.00;95579.22;1026155;28;20018;-71
2022/08/18 00:22:58;;;;;;;22.88;17.88;;;;;;;16.79;100.00;95581.56;1024974;28;20046;-72
2022/08/18 00:23:31;;;;;;;19.45;16.10;;;;;;;16.76;100.00;95573.44;1030106;28;20062;-70
2022/08/18 00:24:02;;;;;;;19.48;17.20;;;;;;;16.69;100.00;95564.03;1028464;28;20109;-70
2022/08/18 00:24:33;;;;;;;18.30;16.33;;;;;;;16.75;100.00;95577.19;1029537;28;20014;-71
2022/08/18 00:25:04;;;;;;;20.75;16.92;;;;;;;16.71;100.00;95577.75;1023015;28;20449;-70
2022/08/18 00:25:34;;;;;;;20.42;16.55;;;;;;;16.73;100.00;95575.59;1025994;28;20019;-70
2022/08/18 00:26:05;;;;;;;18.45;16.23;;;;;;;16.71;100.00;95574.34;1021220;29;20023;-70
2022/08/18 00:26:35;;;;;;;18.70;16.08;;;;;;;16.72;100.00;95575.88;1020861;28;20047;-71
2022/08/18 00:27:07;;;;;;;20.95;17.40;;;;;;;16.73;100.00;95572.94;1026278;28;20030;-71
2022/08/18 00:27:40;;;;;;;19.15;16.15;;;;;;;16.72;100.00;95581.97;1024509;28;20045;-70
2022/08/18 00:28:12;;;;;;;20.90;17.42;;;;;;;16.71;100.00;95572.47;1025682;28;20039;-70
2022/08/18 00:28:43;;;;;;;20.45;17.73;;;;;;;16.71;100.00;95577.75;1029958;28;20037;-70
2022/08/18 00:29:13;;;;;;;19.30;16.45;;;;;;;16.64;100.00;95569.47;1029554;28;20037;-70
2022/08/18 00:29:44;;;;;;;18.58;16.05;;;;;;;16.69;100.00;95574.63;1022163;28;20046;-70
2022/08/18 00:30:17;;;;;;;17.65;15.40;;;;;;;16.68;100.00;95581.03;1020359;29;20035;-70
2022/08/18 00:30:47;;;;;;;21.65;18.42;;;;;;;16.69;100.00;95576.50;1022072;29;20484;-71
2022/08/18 00:31:18;;;;;;;21.65;17.60;;;;;;;16.66;100.00;95580.53;1022786;28;20035;-71
2022/08/18 00:31:48;;;;;;;28.92;19.65;;;;;;;16.64;100.00;95574.78;1023756;28;20031;-70
2022/08/18 00:32:21;;;;;;;21.80;18.33;;;;;;;16.65;100.00;95578.97;1018093;29;20119;-70
2022/08/18 00:32:54;;;;;;;29.65;20.08;;;;;;;16.63;100.00;95573.22;1028406;28;20058;-71
2022/08/18 00:33:24;;;;;;;20.90;18.52;;;;;;;16.70;100.00;95586.03;1025558;28;20038;-71
2022/08/18 00:33:55;;;;;;;23.75;19.67;;;;;;;16.70;100.00;95591.34;1025789;28;20569;-71
2022/08/18 00:34:25;;;;;;;29.95;22.00;;;;;;;16.68;100.00;95591.63;1024969;28;20066;-71
2022/08/18 00:34:55;;;;;;;21.85;17.95;;;;;;;16.62;100.00;95582.22;1025982;28;20038;-70
2022/08/18 00:35:34;;;;;;;27.58;19.65;;;;;;;16.68;100.00;95596.91;1025835;28;20447;-70
2022/08/18 00:36:04;;;;;;;30.45;19.58;;;;;;;16.70;100.00;95597.41;1029776;28;20031;-71
2022/08/18 00:36:35;;;;;;;25.00;19.70;;;;;;;16.70;100.00;95600.06;1022091;29;20122;-70
2022/08/18 00:37:05;;;;;;;24.15;18.88;;;;;;;16.73;100.00;95598.66;1027854;28;20031;-71
2022/08/18 00:37:36;;;;;;;25.58;19.95;;;;;;;16.71;100.00;95601.63;1026158;28;20656;-70
2022/08/18 00:38:06;;;;;;;26.77;19.88;;;;;;;16.66;100.00;95593.78;1019170;29;20028;-70
2022/08/18 00:38:37;;;;;;;26.55;20.23;;;;;;;16.71;100.00;95601.63;1018027;29;20028;-70
2022/08/18 00:39:08;;;;;;;29.85;21.65;;;;;;;16.75;100.00;95603.69;1018253;29;20023;-70
2022/08/18 00:39:38;;;;;;;35.80;22.70;;;;;;;16.73;100.00;95609.25;1018318;28;20434;-70
2022/08/18 00:40:11;;;;;;;26.55;21.02;;;;;;;16.76;100.00;95607.88;1025921;28;20054;-70
2022/08/18 00:40:50;;;;;;;26.95;21.02;;;;;;;16.72;100.00;95597.09;1018502;29;20653;-71
2022/08/18 00:41:25;;;;;;;29.35;22.08;;;;;;;16.71;100.00;95596.31;1020991;28;20030;-70
2022/08/18 00:41:55;;;;;;;27.35;21.33;;;;;;;16.69;100.00;95590.53;1025036;28;20143;-70
2022/08/18 00:42:27;;;;;;;41.63;25.90;;;;;;;16.75;100.00;95590.44;1025404;28;20386;-70
2022/08/18 00:43:00;;;;;;;25.23;20.30;;;;;;;16.73;100.00;95593.34;1029401;28;20591;-72
2022/08/18 00:43:33;;;;;;;25.00;20.60;;;;;;;16.73;100.00;95593.34;1015535;29;20032;-70
2022/08/18 00:44:04;;;;;;;34.80;22.88;;;;;;;16.76;100.00;95592.00;1026004;28;20023;-70
2022/08/18 00:44:34;;;;;;;22.92;20.13;;;;;;;16.75;100.00;95591.22;1025733;28;20058;-70
2022/08/18 00:45:15;;;;;;;25.25;20.02;;;;;;;16.75;100.00;95596.50;1022809;28;20473;-71
2022/08/18 00:45:45;;;;;;;27.30;20.25;;;;;;;16.70;100.00;95578.84;1032596;28;20018;-70
2022/08/18 00:46:24;;;;;;;25.55;19.15;;;;;;;16.75;100.00;95591.22;1030026;28;20026;-70
2022/08/18 00:46:55;;;;;;;21.75;18.30;;;;;;;16.77;100.00;95588.25;1026115;28;20019;-70
2022/08/18 00:47:28;;;;;;;24.83;19.98;;;;;;;16.77;100.00;95583.75;1029522;28;20035;-70
2022/08/18 00:47:59;;;;;;;21.80;18.73;;;;;;;16.78;100.00;95584.53;1028393;28;20090;-69
2022/08/18 00:48:29;;;;;;;26.90;21.73;;;;;;;16.80;100.00;95582.34;1025826;28;20038;-70
2022/08/18 00:49:00;;;;;;;27.83;19.50;;;;;;;16.70;100.00;95565.63;1025963;28;20033;-70
2022/08/18 00:49:30;;;;;;;31.23;23.42;;;;;;;16.71;100.00;95558.44;1022067;28;20647;-70
2022/08/18 00:50:01;;;;;;;25.48;20.02;;;;;;;16.79;100.00;95567.53;1018144;29;20024;-71
2022/08/18 00:50:50;;;;;;;23.27;18.20;;;;;;;16.77;100.00;95564.41;1019115;28;20068;-68
2022/08/18 00:51:36;;;;;;;23.65;19.92;;;;;;;16.72;100.00;95555.47;1028205;28;20024;-70
2022/08/18 00:52:08;;;;;;;26.08;19.58;;;;;;;16.71;100.00;95551.28;1032160;28;20030;-70
2022/08/18 00:52:38;;;;;;;23.20;20.02;;;;;;;16.77;100.00;95565.19;1028576;28;20042;-70
2022/08/18 00:53:14;;;;;;;24.17;19.98;;;;;;;16.75;100.00;95558.63;1030153;28;20030;-71
2022/08/18 00:53:54;;;;;;;23.42;18.80;;;;;;;16.72;100.00;95555.47;1024425;28;20026;-71
2022/08/18 00:54:26;;;;;;;28.33;18.52;;;;;;;16.75;100.00;95556.75;1021656;29;20039;-70
2022/08/18 00:54:58;;;;;;;23.42;19.48;;;;;;;16.72;100.00;95563.41;1021904;29;20066;-70
2022/08/18 00:55:28;;;;;;;28.52;20.85;;;;;;;16.67;100.00;95545.03;1025779;28;20039;-71
2022/08/18 00:56:02;;;;;;;21.00;17.98;;;;;;;16.74;100.00;95560.47;1029980;28;20022;-70
2022/08/18 00:56:35;;;;;;;26.48;19.92;;;;;;;16.68;100.00;95557.19;1025920;28;20030;-72
2022/08/18 00:57:05;;;;;;;26.40;19.83;;;;;;;16.73;100.00;95561.53;1012988;29;20107;-71
2022/08/18 00:57:36;;;;;;;25.23;20.05;;;;;;;16.71;100.00;95559.22;1024376;28;20019;-70
2022/08/18 00:58:09;;;;;;;35.67;24.30;;;;;;;16.65;100.00;95549.84;1026060;28;20035;-71
2022/08/18 00:58:50;;;;;;;28.23;20.98;;;;;;;16.68;100.00;95559.81;1024206;28;20094;-71
2022/08/18 00:59:30;;;;;;;36.83;23.58;;;;;;;16.72;100.00;95566.06;1023792;28;20118;-70
2022/08/18 01:00:13;;;;;;;25.25;20.55;;;;;;;16.68;100.00;95559.81;1021935;28;20094;-71
2022/08/18 01:00:44;;;;;;;26.70;21.27;;;;;;;16.71;100.00;95569.81;1027958;28;20027;-70
2022/08/18 01:01:15;;;;;;;34.75;24.02;;;;;;;16.71;100.00;95567.16;1025932;28;20091;-71
2022/08/18 01:01:45;;;;;;;34.13;23.20;;;;;;;16.70;100.00;95562.19;1026639;28;20042;-70
2022/08/18 01:02:42;;;;;;;22.90;19.98;;;;;;;16.72;100.00;95568.72;1025233;28;20019;-71
2022/08/18 01:03:13;;;;;;;29.08;21.77;;;;;;;16.69;100.00;95569.31;1023261;28;20047;-70
2022/08/18 01:03:44;;;;;;;27.00;21.67;;;;;;;16.70;100.00;95573.56;1026553;28;20034;-71
2022/08/18 01:04:23;;;;;;;28.13;21.80;;;;;;;16.69;100.00;95571.97;1025212;28;20515;-70
2022/08/18 01:04:59;;;;;;;25.55;20.48;;;;;;;16.69;100.00;95577.28;1034885;28;20010;-72
2022/08/18 01:05:44;;;;;;;24.75;19.85;;;;;;;16.63;100.00;95567.13;1030425;28;20065;-72
2022/08/18 01:06:17;;;;;;;25.23;19.08;;;;;;;16.68;100.00;95578.38;1023308;28;20016;-70
2022/08/18 01:06:56;;;;;;;29.05;21.70;;;;;;;16.68;100.00;95581.03;1018641;29;20016;-70
2022/08/18 01:07:41;;;;;;;30.70;22.30;;;;;;;16.71;100.00;95583.06;1020331;29;20055;-71
2022/08/18 01:08:13;;;;;;;26.27;20.67;;;;;;;16.67;100.00;95576.81;1024751;28;20247;-70
2022/08/18 01:08:43;;;;;;;40.90;26.52;;;;;;;16.63;100.00;95569.75;1022651;29;20019;-71
2022/08/18 01:09:16;;;;;;;39.45;25.35;;;;;;;16.69;100.00;95590.53;1019818;29;20012;-70
2022/08/18 01:09:48;;;;;;;40.33;26.45;;;;;;;16.72;100.00;95587.25;1026360;28;20006;-70
2022/08/18 01:10:20;;;;;;;39.25;26.90;;;;;;;16.70;100.00;95592.09;1030658;28;20026;-71
2022/08/18 01:10:50;;;;;;;33.83;24.08;;;;;;;16.63;100.00;95581.16;1024593;28;20602;-70
2022/08/18 01:11:21;;;;;;;38.10;26.30;;;;;;;16.66;100.00;95596.44;1028462;28;20026;-70
2022/08/18 01:11:51;;;;;;;36.42;25.33;;;;;;;16.62;100.00;95584.09;1026767;28;20611;-71
2022/08/18 01:12:22;;;;;;;32.38;25.08;;;;;;;16.64;100.00;95590.66;1029862;28;20029;-70
2022/08/18 01:12:53;;;;;;;44.20;27.63;;;;;;;16.65;100.00;95586.94;1028556;28;20062;-71
2022/08/18 01:13:28;;;;;;;24.27;20.40;;;;;;;16.63;100.00;95583.00;1026596;28;20019;-70
2022/08/18 01:13:58;;;;;;;30.15;22.30;;;;;;;16.66;100.00;95593.78;1014670;29;20107;-71
2022/08/18 01:14:29;;;;;;;39.50;26.02;;;;;;;16.61;100.00;95585.97;1011580;29;20036;-69
2022/08/18 01:14:59;;;;;;;29.92;22.20;;;;;;;16.64;100.00;95589.91;1014821;29;20103;-70
2022/08/18 01:15:30;;;;;;;32.13;23.30;;;;;;;16.65;100.00;95594.88;1028170;28;20655;-70
2022/08/18 01:21:49;;;;;;;41.28;25.08;;;;;;;16.65;100.00;95594.88;1024192;28;20472;-69
2022/08/18 01:22:12;;;;;;;21.95;17.02;;;;;;;16.66;100.00;95617.63;1026295;28;20099;-69
2022/08/18 01:22:46;;;;;;;18.92;15.88;;;;;;;16.65;100.00;95624.03;1021243;29;20019;-70
2022/08/18 01:23:17;;;;;;;22.42;18.15;;;;;;;16.61;100.00;95612.47;1022879;28;20667;-69
2022/08/18 01:23:49;;;;;;;18.85;16.15;;;;;;;16.68;100.00;95633.22;1026417;28;20027;-70
2022/08/18 01:26:08;;;;;;;21.27;18.30;;;;;;;16.71;100.00;95625.47;1027538;28;20044;-70
2022/08/18 01:26:48;;;;;;;27.13;19.60;;;;;;;16.70;100.00;95620.47;1032825;28;20034;-71
2022/08/18 01:27:19;;;;;;;34.15;22.40;;;;;;;16.75;100.00;95622.22;1030628;28;20023;-70
2022/08/18 01:27:50;;;;;;;22.17;17.55;;;;;;;16.72;100.00;95620.94;1025943;28;20665;-69
2022/08/18 01:28:21;;;;;;;21.20;16.42;;;;;;;16.72;100.00;95621.72;1026287;28;20389;-70
2022/08/18 01:28:52;;;;;;;27.83;20.33;;;;;;;16.73;100.00;95607.41;1026636;28;20261;-70
2022/08/18 01:29:23;;;;;;;21.77;17.77;;;;;;;16.75;100.00;95608.97;1021971;29;20485;-69
2022/08/18 01:29:53;;;;;;;19.00;16.85;;;;;;;16.75;100.00;95612.41;1025298;28;20023;-70
2022/08/18 01:30:24;;;;;;;21.65;17.95;;;;;;;16.72;100.00;95605.03;1034530;28;20030;-70
2022/08/18 01:30:57;;;;;;;19.23;16.70;;;;;;;16.75;100.00;95611.63;1029204;28;20034;-70
2022/08/18 01:31:36;;;;;;;19.67;17.27;;;;;;;16.72;100.00;95603.16;1023245;28;20028;-70
2022/08/18 01:32:07;;;;;;;18.40;15.65;;;;;;;16.64;100.00;95595.97;1026511;28;20825;-70
2022/08/18 01:32:38;;;;;;;18.05;16.17;;;;;;;16.69;100.00;95590.53;1024236;28;20051;-70
2022/08/18 01:33:11;;;;;;;33.53;19.42;;;;;;;16.66;100.00;95591.13;1025801;28;20070;-71
2022/08/18 01:33:42;;;;;;;24.92;19.05;;;;;;;16.76;100.00;95594.63;1030617;28;20015;-71
2022/08/18 01:34:13;;;;;;;20.17;17.13;;;;;;;16.72;100.00;95589.13;1026626;28;20102;-69
2022/08/18 01:34:45;;;;;;;19.40;16.58;;;;;;;16.69;100.00;95593.16;1019472;29;20016;-69
2022/08/18 01:35:16;;;;;;;20.60;16.55;;;;;;;16.71;100.00;95601.63;1017138;29;20024;-70
2022/08/18 01:35:48;;;;;;;23.75;17.15;;;;;;;16.71;100.00;95598.19;1019109;29;20023;-70
2022/08/18 01:36:19;;;;;;;21.00;17.13;;;;;;;16.69;100.00;95601.13;1022159;28;20034;-71
2022/08/18 01:36:51;;;;;;;24.10;20.50;;;;;;;16.72;100.00;95597.88;1031200;28;20076;-70
2022/08/18 01:37:22;;;;;;;17.25;15.35;;;;;;;16.71;100.00;95587.59;1030144;28;20030;-69
2022/08/18 01:37:53;;;;;;;20.27;17.58;;;;;;;16.63;100.00;95575.88;1026768;28;20147;-69
2022/08/18 01:38:25;;;;;;;25.13;18.13;;;;;;;16.65;100.00;95575.56;1028234;28;20174;-70
2022/08/18 01:38:55;;;;;;;20.50;17.90;;;;;;;16.70;100.00;95578.09;1028535;28;20021;-70
2022/08/18 01:39:26;;;;;;;26.45;17.73;;;;;;;16.57;100.00;95558.53;1019616;29;20038;-70
2022/08/18 01:39:56;;;;;;;18.65;15.77;;;;;;;16.68;100.00;95574.94;1018872;29;20019;-69
2022/08/18 01:40:27;;;;;;;26.90;19.00;;;;;;;16.71;100.00;95579.63;1018577;29;20576;-71
2022/08/18 01:40:58;;;;;;;24.38;18.52;;;;;;;16.67;100.00;95574.16;1018812;28;20019;-69
2022/08/18 01:41:29;;;;;;;23.95;17.33;;;;;;;16.74;100.00;95579.03;1033987;28;20068;-70
2022/08/18 01:42:02;;;;;;;17.45;14.93;;;;;;;16.71;100.00;95579.63;1034850;28;20036;-70
2022/08/18 01:42:32;;;;;;;25.23;17.50;;;;;;;16.64;100.00;95574.78;1037085;28;20053;-70
2022/08/18 01:43:04;;;;;;;25.75;18.52;;;;;;;16.70;100.00;95589.47;1028870;28;20507;-70
2022/08/18 01:43:35;;;;;;;25.80;19.85;;;;;;;16.71;100.00;95585.72;1026524;28;20118;-70
2022/08/18 01:44:07;;;;;;;25.48;19.67;;;;;;;16.65;100.00;95571.03;1026501;28;20029;-70
2022/08/18 01:44:40;;;;;;;40.33;24.58;;;;;;;16.70;100.00;95580.72;1026725;28;20057;-70
2022/08/18 01:45:12;;;;;;;31.67;21.52;;;;;;;16.64;100.00;95564.19;1023560;28;20038;-69
2022/08/18 01:45:42;;;;;;;23.13;18.52;;;;;;;16.63;100.00;95567.91;1021695;29;20622;-70
2022/08/18 01:46:18;;;;;;;23.55;16.58;;;;;;;16.67;100.00;95574.16;1023292;28;20062;-70
2022/08/18 01:46:51;;;;;;;18.83;15.63;;;;;;;16.56;100.00;95564.13;1018547;28;20060;-69
2022/08/18 01:47:22;;;;;;;29.52;20.48;;;;;;;16.64;100.00;95571.34;1025363;28;20864;-70
2022/08/18 01:47:53;;;;;;;23.25;19.00;;;;;;;16.66;100.00;95571.81;1021576;28;20148;-70
2022/08/18 01:48:23;;;;;;;24.48;18.95;;;;;;;16.66;100.00;95567.28;1025008;28;20038;-70
2022/08/18 01:48:54;;;;;;;23.85;18.30;;;;;;;16.68;100.00;95567.78;1030771;28;20029;-70
2022/08/18 01:49:27;;;;;;;23.92;17.38;;;;;;;16.66;100.00;95562.00;1030604;28;20065;-71
2022/08/18 01:49:59;;;;;;;19.25;15.52;;;;;;;16.66;100.00;95567.28;1030541;28;20108;-70
2022/08/18 01:50:33;;;;;;;19.63;16.30;;;;;;;16.59;100.00;95556.34;1030065;28;21487;-70
2022/08/18 01:51:05;;;;;;;23.17;16.05;;;;;;;16.61;100.00;95564.00;1026742;28;20027;-71
2022/08/18 01:51:36;;;;;;;25.08;17.42;;;;;;;16.64;100.00;95569.47;1026464;28;20186;-70
2022/08/18 01:52:07;;;;;;;20.75;16.75;;;;;;;16.57;100.00;95558.53;1025501;28;20023;-70
2022/08/18 01:52:38;;;;;;;27.15;19.67;;;;;;;16.59;100.00;95561.66;1028085;28;20117;-70
2022/08/18 01:53:10;;;;;;;23.45;18.67;;;;;;;16.56;100.00;95556.97;1029769;28;20026;-70
2022/08/18 01:53:41;;;;;;;26.17;19.23;;;;;;;16.60;100.00;95571.19;1021824;29;20023;-70
2022/08/18 01:54:12;;;;;;;18.52;15.70;;;;;;;16.59;100.00;95571.47;1026585;28;20015;-71
2022/08/18 01:54:42;;;;;;;21.08;16.17;;;;;;;16.58;100.00;95580.50;1026570;28;20393;-69
2022/08/18 01:55:13;;;;;;;23.90;18.13;;;;;;;16.56;100.00;95574.72;1027021;28;20034;-70
2022/08/18 01:55:44;;;;;;;19.65;16.13;;;;;;;16.57;100.00;95576.31;1031439;28;20100;-70
2022/08/18 01:56:16;;;;;;;27.55;19.75;;;;;;;16.57;100.00;95574.44;1034607;28;20037;-70
2022/08/18 01:56:48;;;;;;;20.38;17.40;;;;;;;16.56;100.00;95583.44;1026435;28;20090;-69
2022/08/18 01:57:18;;;;;;;20.58;16.48;;;;;;;16.53;100.00;95578.75;1026348;28;20031;-70
2022/08/18 01:57:49;;;;;;;23.90;19.17;;;;;;;16.57;100.00;95584.25;1022476;29;20031;-70
2022/08/18 01:58:21;;;;;;;21.95;17.38;;;;;;;16.55;100.00;95592.50;1026414;28;20030;-70
2022/08/18 01:58:51;;;;;;;24.58;18.90;;;;;;;16.59;100.00;95590.78;1024969;28;20018;-69
2022/08/18 01:59:22;;;;;;;21.98;18.13;;;;;;;16.58;100.00;95591.88;1025929;28;20026;-70
2022/08/18 01:59:52;;;;;;;26.80;19.85;;;;;;;16.59;100.00;95593.44;1034802;28;20041;-70
2022/08/18 02:00:24;;;;;;;20.48;17.58;;;;;;;16.60;100.00;95595.03;1030240;28;20101;-69
2022/08/18 02:00:57;;;;;;;24.15;18.45;;;;;;;16.61;100.00;95593.94;1028536;28;20097;-69
2022/08/18 02:01:28;;;;;;;19.90;17.80;;;;;;;16.61;100.00;95596.56;1029631;28;20031;-70
2022/08/18 02:01:58;;;;;;;21.63;18.00;;;;;;;16.62;100.00;95592.84;1031683;28;20242;-69
2022/08/18 02:02:31;;;;;;;23.63;17.48;;;;;;;16.61;100.00;95591.28;1032556;28;20081;-70
2022/08/18 02:03:08;;;;;;;22.05;16.92;;;;;;;16.63;100.00;95594.41;1034486;28;20073;-70
2022/08/18 02:03:45;;;;;;;22.67;17.25;;;;;;;16.62;100.00;95592.06;1030457;28;20026;-70
2022/08/18 02:04:15;;;;;;;20.65;17.25;;;;;;;16.53;100.00;95586.69;1029353;28;20030;-70
2022/08/18 02:04:46;;;;;;;21.08;16.45;;;;;;;16.54;100.00;95593.59;1030142;28;20496;-70
2022/08/18 02:05:19;;;;;;;20.88;17.05;;;;;;;16.53;100.00;95593.88;1030512;28;20053;-69
2022/08/18 02:05:50;;;;;;;21.30;15.98;;;;;;;16.47;100.00;95590.59;1024885;28;20027;-69
2022/08/18 02:06:21;;;;;;;23.48;17.67;;;;;;;16.49;100.00;95594.47;1026229;28;20031;-70
2022/08/18 02:06:52;;;;;;;22.23;17.92;;;;;;;16.49;100.00;95594.47;1026921;28;20054;-70
2022/08/18 02:07:22;;;;;;;24.60;18.10;;;;;;;16.44;100.00;95591.97;1028786;28;20041;-69
2022/08/18 02:07:53;;;;;;;22.52;18.35;;;;;;;16.49;100.00;95591.03;1026502;28;20803;-70
2022/08/18 02:08:23;;;;;;;21.63;18.73;;;;;;;16.44;100.00;95596.50;1030538;28;20459;-69
2022/08/18 02:08:54;;;;;;;19.40;16.88;;;;;;;16.42;100.00;95602.06;1030381;28;20026;-71
2022/08/18 02:09:24;;;;;;;16.80;15.02;;;;;;;16.41;100.00;95594.44;1026428;28;20101;-70
2022/08/18 02:09:55;;;;;;;18.00;16.10;;;;;;;16.42;100.00;95593.34;1024517;28;20773;-69
2022/08/18 02:10:26;;;;;;;16.77;14.98;;;;;;;16.40;100.00;95590.25;1026500;28;20066;-70
2022/08/18 02:11:00;;;;;;;23.83;17.40;;;;;;;16.39;100.00;95592.06;1025941;28;20035;-70
2022/08/18 02:11:30;;;;;;;22.08;17.30;;;;;;;16.37;100.00;95596.13;1026266;28;20109;-70
2022/08/18 02:12:01;;;;;;;21.10;16.25;;;;;;;16.36;100.00;95594.56;1025659;28;20117;-70
2022/08/18 02:12:32;;;;;;;21.38;16.85;;;;;;;16.31;100.00;95581.44;1026542;28;20091;-70
2022/08/18 02:13:02;;;;;;;25.40;19.52;;;;;;;16.27;100.00;95576.75;1030481;28;20038;-70
2022/08/18 02:13:33;;;;;;;20.38;17.75;;;;;;;16.34;100.00;95581.63;1018677;29;20625;-70
2022/08/18 02:14:04;;;;;;;24.17;18.67;;;;;;;16.34;100.00;95580.84;1017558;29;20048;-70
2022/08/18 02:14:35;;;;;;;17.02;15.23;;;;;;;16.33;100.00;95576.63;1021741;28;20042;-70
2022/08/18 02:15:06;;;;;;;22.25;17.27;;;;;;;16.32;100.00;95583.78;1024615;28;20027;-70
2022/08/18 02:15:37;;;;;;;25.55;17.77;;;;;;;16.27;100.00;95576.75;1021245;28;20027;-69
2022/08/18 02:16:07;;;;;;;27.52;20.02;;;;;;;16.33;100.00;95584.56;1018826;28;20063;-70
2022/08/18 02:16:38;;;;;;;29.27;18.80;;;;;;;16.31;100.00;95576.16;1019366;29;20130;-70
2022/08/18 02:17:09;;;;;;;17.63;15.80;;;;;;;16.27;100.00;95576.75;1022211;29;20088;-70
2022/08/18 02:17:42;;;;;;;19.15;16.35;;;;;;;16.21;100.00;95564.72;1019082;29;20046;-70
2022/08/18 02:18:17;;;;;;;27.90;18.48;;;;;;;16.28;100.00;95582.84;1021510;29;20026;-71
2022/08/18 02:18:48;;;;;;;19.73;16.48;;;;;;;16.26;100.00;95575.19;1022295;29;20027;-70
2022/08/18 02:19:18;;;;;;;24.85;17.90;;;;;;;16.23;100.00;95575.81;1025322;28;20035;-69
2022/08/18 02:19:49;;;;;;;19.63;14.95;;;;;;;16.23;100.00;95577.66;1027138;28;20058;-69
2022/08/18 02:20:19;;;;;;;25.25;18.30;;;;;;;16.20;100.00;95568.47;1026226;28;20041;-70
2022/08/18 02:20:50;;;;;;;20.95;17.50;;;;;;;16.22;100.00;95574.22;1022275;28;20665;-70
2022/08/18 02:21:21;;;;;;;24.23;17.48;;;;;;;16.20;100.00;95565.81;1024820;28;20030;-70
2022/08/18 02:21:52;;;;;;;24.33;20.35;;;;;;;16.23;100.00;95573.16;1022648;28;20027;-69
2022/08/18 02:22:22;;;;;;;25.40;18.38;;;;;;;16.22;100.00;95568.16;1026442;28;20023;-69
2022/08/18 02:22:52;;;;;;;34.42;22.88;;;;;;;16.23;100.00;95575.81;1030407;28;20022;-70
2022/08/18 02:23:23;;;;;;;31.45;20.45;;;;;;;16.18;100.00;95575.91;1030399;28;20401;-70
2022/08/18 02:23:54;;;;;;;27.02;19.42;;;;;;;16.11;100.00;95567.63;1026566;28;20026;-70
2022/08/18 02:24:24;;;;;;;21.83;17.67;;;;;;;16.16;100.00;95580.75;1028988;28;20070;-69
2022/08/18 02:24:55;;;;;;;23.75;18.33;;;;;;;16.15;100.00;95579.16;1030487;28;20472;-70
2022/08/18 02:25:26;;;;;;;19.70;16.92;;;;;;;16.15;100.00;95584.47;1026542;28;20019;-70
2022/08/18 02:25:56;;;;;;;22.70;16.95;;;;;;;16.14;100.00;95582.91;1029819;28;20050;-70
2022/08/18 02:26:27;;;;;;;26.70;20.10;;;;;;;16.13;100.00;95583.19;1026145;28;20035;-71
2022/08/18 02:26:57;;;;;;;25.25;19.00;;;;;;;16.13;100.00;95583.19;1030488;28;20018;-70
2022/08/18 02:27:28;;;;;;;21.25;18.13;;;;;;;16.10;100.00;95575.88;1038488;28;20061;-69
2022/08/18 02:27:58;;;;;;;21.50;16.85;;;;;;;16.09;100.00;95579.59;1029711;28;21397;-70
2022/08/18 02:28:29;;;;;;;26.55;19.13;;;;;;;16.13;100.00;95581.34;1026136;28;20074;-70
2022/08/18 02:28:59;;;;;;;31.92;22.08;;;;;;;16.11;100.00;95580.84;1026326;28;20122;-70
2022/08/18 02:29:30;;;;;;;23.42;18.73;;;;;;;16.11;100.00;95582.72;1026468;28;20501;-69
2022/08/18 02:30:01;;;;;;;22.65;18.50;;;;;;;16.07;100.00;95571.97;1030336;28;20025;-70
2022/08/18 02:30:31;;;;;;;24.88;18.13;;;;;;;16.07;100.00;95582.53;1029789;28;20030;-71
2022/08/18 02:31:05;;;;;;;27.02;20.25;;;;;;;16.11;100.00;95577.44;1023801;28;20051;-70
2022/08/18 02:31:35;;;;;;;27.55;20.30;;;;;;;16.09;100.00;95580.34;1026886;28;20097;-70
2022/08/18 02:32:06;;;;;;;29.92;19.20;;;;;;;16.10;100.00;95579.31;1026947;28;20080;-70
2022/08/18 02:32:36;;;;;;;24.42;19.13;;;;;;;16.09;100.00;95572.41;1027479;28;20015;-70
2022/08/18 02:33:08;;;;;;;24.33;19.17;;;;;;;16.02;100.00;95567.53;1028388;28;20022;-70